createdAt,value
2019-04-25T00:01:42.537Z,9.70
2019-04-25T00:04:12.320Z,9.80
2019-04-25T00:06:42.562Z,9.80
2019-04-25T00:09:13.368Z,9.70
2019-04-25T00:11:45.242Z,9.70
2019-04-25T00:14:13.316Z,9.80
2019-04-25T00:16:44.136Z,9.80
2019-04-25T00:19:16.484Z,9.80
2019-04-25T00:21:46.897Z,9.70
2019-04-25T00:24:42.941Z,9.70
2019-04-25T00:27:16.591Z,9.70
2019-04-25T00:30:06.449Z,9.70
2019-04-25T00:32:34.514Z,9.60
2019-04-25T00:35:09.672Z,9.60
2019-04-25T00:37:45.065Z,9.60
2019-04-25T00:40:13.490Z,9.50
2019-04-25T00:42:44.689Z,9.60
2019-04-25T00:45:15.515Z,9.50
2019-04-25T00:47:51.859Z,9.50
2019-04-25T00:50:21.933Z,9.40
2019-04-25T00:52:57.407Z,9.30
2019-04-25T00:55:31.998Z,9.30
2019-04-25T00:58:08.127Z,9.30
2019-04-25T01:00:38.431Z,9.30
2019-04-25T01:03:08.712Z,9.30
2019-04-25T01:05:37.330Z,9.20
2019-04-25T01:08:11.968Z,9.20
2019-04-25T01:10:44.287Z,9.20
2019-04-25T01:13:17.442Z,9.10
2019-04-25T01:15:48.464Z,9.10
2019-04-25T01:18:17.429Z,9.00
2019-04-25T01:20:46.837Z,8.90
2019-04-25T01:23:15.734Z,8.90
2019-04-25T01:25:44.671Z,8.90
2019-04-25T01:28:14.792Z,9.00
2019-04-25T01:30:43.928Z,9.00
2019-04-25T01:33:14.667Z,9.00
2019-04-25T01:35:45.158Z,9.10
2019-04-25T01:38:15.684Z,9.10
2019-04-25T01:41:03.330Z,9.10
2019-04-25T01:43:45.815Z,9.00
2019-04-25T01:46:15.056Z,9.00
2019-04-25T01:48:43.691Z,9.00
2019-04-25T01:51:14.116Z,9.10
2019-04-25T01:53:44.120Z,9.10
2019-04-25T01:56:13.682Z,9.10
2019-04-25T01:58:43.807Z,9.20
2019-04-25T02:01:14.387Z,9.20
2019-04-25T02:03:44.238Z,9.30
2019-04-25T02:06:13.679Z,9.20
2019-04-25T02:08:43.903Z,9.20
2019-04-25T02:11:20.742Z,9.30
2019-04-25T02:13:51.267Z,9.30
2019-04-25T02:16:20.084Z,9.30
2019-04-25T02:18:48.627Z,9.40
2019-04-25T02:21:17.215Z,9.50
2019-04-25T02:23:45.976Z,9.50
2019-04-25T02:26:17.881Z,9.60
2019-04-25T02:28:44.887Z,9.50
2019-04-25T02:31:19.481Z,9.50
2019-04-25T02:33:48.203Z,9.60
2019-04-25T02:36:17.807Z,9.70
2019-04-25T02:38:46.457Z,9.80
2019-04-25T02:41:15.151Z,9.80
2019-04-25T02:43:45.122Z,9.80
2019-04-25T02:46:30.626Z,9.80
2019-04-25T02:49:09.373Z,9.80
2019-04-25T02:51:38.841Z,9.80
2019-04-25T02:54:08.150Z,9.90
2019-04-25T02:56:38.890Z,10.00
2019-04-25T02:59:09.061Z,10.00
2019-04-25T03:01:37.761Z,10.10
2019-04-25T03:04:10.728Z,10.10
2019-04-25T03:06:36.785Z,10.30
2019-04-25T03:09:09.841Z,10.40
2019-04-25T03:11:38.655Z,10.60
2019-04-25T03:14:09.931Z,10.70
2019-04-25T03:16:37.608Z,10.80
2019-04-25T03:19:10.867Z,10.90
2019-04-25T03:21:45.212Z,11.00
2019-04-25T03:24:31.175Z,11.10
2019-04-25T03:27:03.431Z,11.10
2019-04-25T03:29:35.496Z,11.20
2019-04-25T03:32:09.923Z,11.30
2019-04-25T03:34:38.517Z,11.40
2019-04-25T03:37:09.471Z,11.40
2019-04-25T03:39:54.156Z,11.40
2019-04-25T03:42:57.594Z,11.40
2019-04-25T03:45:26.327Z,11.30
2019-04-25T03:47:57.622Z,11.30
2019-04-25T03:50:26.439Z,11.40
2019-04-25T03:53:10.018Z,11.40
2019-04-25T03:55:41.952Z,11.40
2019-04-25T03:58:14.520Z,11.40
2019-04-25T04:00:50.242Z,11.50
2019-04-25T04:03:54.186Z,11.60
2019-04-25T04:06:29.724Z,11.60
2019-04-25T04:09:15.441Z,11.60
2019-04-25T04:11:55.177Z,11.50
2019-04-25T04:14:27.263Z,11.60
2019-04-25T04:17:16.067Z,11.70
2019-04-25T04:20:06.854Z,11.70
2019-04-25T04:23:15.416Z,11.70
2019-04-25T04:25:44.724Z,11.70
2019-04-25T04:28:16.651Z,11.80
2019-04-25T04:30:54.208Z,11.80
2019-04-25T04:33:30.209Z,11.80
2019-04-25T04:36:03.887Z,11.90
2019-04-25T04:38:34.136Z,11.90
2019-04-25T04:41:03.978Z,11.90
2019-04-25T04:43:34.127Z,11.90
2019-04-25T04:46:04.060Z,12.00
2019-04-25T04:48:38.753Z,11.90
2019-04-25T04:51:14.864Z,11.90
2019-04-25T04:53:53.573Z,11.90
2019-04-25T04:56:23.866Z,11.90
2019-04-25T04:58:54.524Z,11.90
2019-04-25T05:01:24.970Z,11.90
2019-04-25T05:04:12.510Z,11.90
2019-04-25T05:07:01.057Z,11.90
2019-04-25T05:09:35.717Z,11.90
2019-04-25T05:12:09.243Z,11.90
2019-04-25T05:14:38.870Z,11.90
2019-04-25T05:17:07.459Z,11.90
2019-04-25T05:19:36.163Z,12.00
2019-04-25T05:22:04.715Z,12.10
2019-04-25T05:24:41.379Z,12.10
2019-04-25T05:27:32.265Z,12.10
2019-04-25T05:29:48.971Z,12.10
2019-04-25T05:32:26.193Z,12.20
2019-04-25T05:34:56.331Z,12.20
2019-04-25T05:37:33.476Z,12.20
2019-04-25T05:40:01.389Z,12.20
2019-04-25T05:42:50.656Z,12.30
2019-04-25T05:45:23.851Z,12.30
2019-04-25T05:47:59.802Z,12.40
2019-04-25T05:50:30.760Z,12.40
2019-04-25T05:53:00.884Z,12.40
2019-04-25T05:55:31.766Z,12.30
2019-04-25T05:58:05.188Z,12.30
2019-04-25T06:00:35.468Z,12.30
2019-04-25T06:03:19.359Z,12.30
2019-04-25T06:05:47.997Z,12.30
2019-04-25T06:08:19.348Z,12.20
2019-04-25T06:11:03.819Z,12.10
2019-04-25T06:13:36.724Z,12.10
2019-04-25T06:16:09.708Z,12.00
2019-04-25T06:18:56.308Z,12.00
2019-04-25T06:21:25.652Z,12.10
2019-04-25T06:24:13.323Z,12.00
2019-04-25T06:26:50.454Z,12.00
2019-04-25T06:29:20.363Z,12.00
2019-04-25T06:31:49.344Z,12.00
2019-04-25T06:34:19.838Z,12.00
2019-04-25T06:36:49.942Z,12.00
2019-04-25T06:39:18.618Z,12.10
2019-04-25T06:41:47.371Z,12.10
2019-04-25T06:44:34.603Z,12.10
2019-04-25T06:47:20.235Z,12.20
2019-04-25T06:49:49.996Z,12.30
2019-04-25T06:52:18.619Z,12.30
2019-04-25T06:54:47.379Z,12.30
2019-04-25T06:57:16.120Z,12.30
2019-04-25T06:59:47.303Z,12.40
2019-04-25T07:02:15.912Z,12.40
2019-04-25T07:04:45.697Z,12.40
2019-04-25T07:07:15.094Z,12.40
2019-04-25T07:09:43.864Z,12.50
2019-04-25T07:12:13.439Z,12.60
2019-04-25T07:14:44.035Z,12.70
2019-04-25T07:17:14.273Z,12.60
2019-04-25T07:19:46.208Z,12.60
2019-04-25T07:22:15.538Z,12.50
2019-04-25T07:24:50.061Z,12.50
2019-04-25T07:30:50.152Z,12.70
2019-04-25T07:33:19.776Z,12.80
2019-04-25T07:35:48.347Z,12.90
2019-04-25T07:38:17.037Z,13.00
2019-04-25T07:40:46.192Z,13.10
2019-04-25T07:43:14.989Z,13.10
2019-04-25T07:45:43.889Z,13.20
2019-04-25T07:48:13.954Z,13.40
2019-04-25T07:50:43.871Z,13.80
2019-04-25T07:53:14.313Z,13.90
2019-04-25T07:55:43.350Z,14.00
2019-04-25T07:58:12.188Z,14.20
2019-04-25T08:00:41.501Z,14.80
2019-04-25T08:03:10.479Z,15.80
2019-04-25T08:05:41.307Z,17.90
2019-04-25T08:08:10.486Z,17.50
2019-04-25T08:11:01.535Z,17.20
2019-04-25T08:16:31.087Z,16.10
2019-04-25T08:19:01.720Z,15.50
2019-04-25T08:21:34.061Z,15.80
2019-04-25T08:24:04.727Z,17.90
2019-04-25T08:26:36.069Z,17.80
2019-04-25T08:29:05.128Z,17.40
2019-04-25T08:31:36.379Z,17.20
2019-04-25T08:34:06.645Z,18.10
2019-04-25T08:36:38.007Z,17.70
2019-04-25T08:39:09.072Z,17.90
2019-04-25T08:41:56.838Z,17.10
2019-04-25T08:44:25.560Z,16.70
2019-04-25T08:46:54.630Z,17.10
2019-04-25T08:49:28.093Z,16.70
2019-04-25T08:52:05.082Z,17.10
2019-04-25T08:54:47.267Z,18.50
2019-04-25T08:57:58.824Z,18.70
2019-04-25T09:00:44.696Z,18.00
2019-04-25T09:03:15.506Z,17.20
2019-04-25T09:05:46.729Z,17.60
2019-04-25T09:08:15.438Z,17.20
2019-04-25T09:10:44.924Z,17.90
2019-04-25T09:13:16.988Z,18.10
2019-04-25T09:15:47.729Z,18.90
2019-04-25T09:18:17.137Z,18.60
2019-04-25T09:20:46.706Z,18.90
2019-04-25T09:23:15.645Z,19.20
2019-04-25T09:25:46.100Z,19.40
2019-04-25T09:28:23.829Z,19.50
2019-04-25T09:30:54.062Z,19.20
2019-04-25T09:33:23.320Z,19.00
2019-04-25T09:35:54.091Z,18.90
2019-04-25T09:38:24.416Z,19.10
2019-04-25T09:40:54.173Z,19.10
2019-04-25T09:43:26.332Z,18.80
2019-04-25T09:46:03.247Z,18.70
2019-04-25T09:48:36.238Z,18.50
2019-04-25T09:51:15.616Z,18.80
2019-04-25T09:53:50.037Z,18.50
2019-04-25T09:56:17.901Z,18.70
2019-04-25T09:58:51.708Z,19.10
2019-04-25T10:01:20.510Z,19.60
2019-04-25T10:03:49.473Z,19.00
2019-04-25T10:06:19.265Z,19.00
2019-04-25T10:08:48.557Z,18.60
2019-04-25T10:11:17.609Z,18.50
2019-04-25T10:13:49.328Z,18.50
2019-04-25T10:16:18.672Z,18.60
2019-04-25T10:18:47.631Z,18.40
2019-04-25T10:21:17.913Z,18.40
2019-04-25T10:23:46.809Z,18.20
2019-04-25T10:26:16.537Z,18.30
2019-04-25T10:28:45.580Z,18.50
2019-04-25T10:31:16.127Z,18.50
2019-04-25T10:33:48.647Z,18.40
2019-04-25T10:36:24.702Z,18.30
2019-04-25T10:39:04.067Z,18.20
2019-04-25T10:41:24.714Z,18.00
2019-04-25T10:43:56.006Z,18.30
2019-04-25T10:46:25.376Z,18.40
2019-04-25T10:48:56.223Z,18.40
2019-04-25T10:51:25.386Z,18.20
2019-04-25T10:53:55.099Z,18.30
2019-04-25T10:56:25.565Z,18.20
2019-04-25T10:58:54.986Z,18.30
2019-04-25T11:01:25.177Z,18.20
2019-04-25T11:03:58.147Z,17.80
2019-04-25T11:06:28.603Z,17.70
2019-04-25T11:08:57.686Z,17.50
2019-04-25T11:11:26.611Z,17.30
2019-04-25T11:13:58.254Z,17.20
2019-04-25T11:16:28.703Z,16.80
2019-04-25T11:18:57.361Z,16.50
2019-04-25T11:21:26.067Z,16.50
2019-04-25T11:23:55.555Z,16.60
2019-04-25T11:26:24.866Z,16.70
2019-04-25T11:28:54.478Z,16.90
2019-04-25T11:31:25.122Z,16.70
2019-04-25T11:33:54.529Z,16.60
2019-04-25T11:36:24.983Z,16.30
2019-04-25T11:39:11.445Z,16.20
2019-04-25T11:41:40.331Z,16.00
2019-04-25T11:44:08.895Z,15.70
2019-04-25T11:46:39.324Z,15.50
2019-04-25T11:49:07.803Z,15.40
2019-04-25T11:51:36.476Z,15.20
2019-04-25T11:54:05.822Z,14.90
2019-04-25T11:56:34.440Z,14.90
2019-04-25T11:59:04.587Z,14.70
2019-04-25T12:01:33.665Z,14.60
2019-04-25T12:04:04.017Z,14.30
2019-04-25T12:06:33.496Z,14.10
2019-04-25T12:09:03.980Z,14.00
2019-04-25T12:11:34.139Z,13.90
2019-04-25T12:14:04.343Z,13.80
2019-04-25T12:16:36.145Z,13.80
2019-04-25T12:19:04.949Z,13.80
2019-04-25T12:21:41.091Z,13.90
2019-04-25T12:24:15.540Z,14.00
2019-04-25T12:26:46.529Z,14.10
2019-04-25T12:29:14.473Z,14.20
2019-04-25T12:31:45.478Z,14.30
2019-04-25T12:34:14.192Z,14.20
2019-04-25T12:36:44.385Z,14.30
2019-04-25T12:39:14.074Z,14.40
2019-04-25T12:41:44.180Z,14.50
2019-04-25T12:44:17.684Z,14.30
2019-04-25T12:46:48.511Z,14.40
2019-04-25T12:49:17.190Z,14.40
2019-04-25T12:51:48.506Z,14.70
2019-04-25T12:54:19.720Z,14.70
2019-04-25T12:56:53.624Z,14.60
2019-04-25T12:59:23.743Z,14.70
2019-04-25T13:01:53.645Z,14.90
2019-04-25T13:04:27.456Z,14.80
2019-04-25T13:06:56.075Z,15.00
2019-04-25T13:09:30.449Z,15.20
2019-04-25T13:11:59.145Z,15.10
2019-04-25T13:14:28.603Z,15.10
2019-04-25T13:16:59.210Z,15.20
2019-04-25T13:19:27.839Z,15.30
2019-04-25T13:21:57.050Z,15.50
2019-04-25T13:24:26.655Z,15.30
2019-04-25T13:26:58.550Z,15.30
2019-04-25T13:29:43.333Z,15.20
2019-04-25T13:32:19.310Z,15.00
2019-04-25T13:34:49.555Z,14.60
2019-04-25T13:37:18.365Z,14.40
2019-04-25T13:39:46.960Z,14.20
2019-04-25T13:42:15.619Z,14.20
2019-04-25T13:44:44.402Z,14.10
2019-04-25T13:47:14.045Z,14.20
2019-04-25T13:49:51.597Z,13.90
2019-04-25T13:52:20.521Z,13.60
2019-04-25T13:54:49.731Z,13.60
2019-04-25T13:57:18.457Z,13.50
2019-04-25T13:59:51.841Z,13.50
2019-04-25T14:02:22.699Z,13.30
2019-04-25T14:04:51.831Z,13.40
2019-04-25T14:07:24.881Z,13.50
2019-04-25T14:09:55.592Z,13.60
2019-04-25T14:12:28.104Z,13.70
2019-04-25T14:15:18.591Z,13.70
2019-04-25T14:18:07.434Z,13.80
2019-04-25T14:20:38.193Z,13.80
2019-04-25T14:23:14.901Z,13.90
2019-04-25T14:25:46.191Z,13.80
2019-04-25T14:28:18.739Z,14.00
2019-04-25T14:30:47.901Z,14.10
2019-04-25T14:33:25.287Z,14.00
2019-04-25T14:35:55.719Z,14.00
2019-04-25T14:38:30.203Z,14.20
2019-04-25T14:41:05.717Z,14.10
2019-04-25T14:43:34.483Z,14.10
2019-04-25T14:46:06.027Z,14.00
2019-04-25T14:48:43.365Z,14.10
2019-04-25T14:51:22.829Z,14.30
2019-04-25T14:53:51.625Z,14.60
2019-04-25T14:56:33.878Z,14.90
2019-04-25T14:59:17.961Z,14.90
2019-04-25T15:02:14.022Z,14.70
2019-04-25T15:04:46.004Z,14.50
2019-04-25T15:07:17.353Z,14.80
2019-04-25T15:09:49.241Z,14.90
2019-04-25T15:12:19.090Z,14.80
2019-04-25T15:14:50.750Z,14.60
2019-04-25T15:17:18.544Z,14.40
2019-04-25T15:19:47.286Z,14.30
2019-04-25T15:22:24.381Z,14.30
2019-04-25T15:24:58.044Z,14.30
2019-04-25T15:27:29.116Z,14.30
2019-04-25T15:30:36.288Z,14.50
2019-04-25T15:33:09.140Z,14.80
2019-04-25T15:35:49.909Z,14.90
2019-04-25T15:38:36.163Z,14.90
2019-04-25T15:41:35.869Z,15.00
2019-04-25T15:44:20.371Z,15.20
2019-04-25T15:46:50.599Z,15.10
2019-04-25T15:49:25.375Z,15.10
2019-04-25T15:51:54.578Z,15.30
2019-04-25T15:54:26.474Z,15.40
2019-04-25T15:56:55.349Z,15.20
2019-04-25T15:59:23.955Z,15.40
2019-04-25T16:01:54.584Z,15.50
2019-04-25T16:04:30.867Z,15.50
2019-04-25T16:06:59.499Z,15.50
2019-04-25T16:09:34.573Z,15.50
2019-04-25T16:12:04.341Z,15.30
2019-04-25T16:14:37.609Z,15.50
2019-04-25T16:17:14.211Z,15.60
2019-04-25T16:19:45.835Z,15.90
2019-04-25T16:22:17.473Z,15.70
2019-04-25T16:25:01.574Z,15.60
2019-04-25T16:27:36.617Z,15.60
2019-04-25T16:30:12.052Z,15.40
2019-04-25T16:32:41.726Z,15.10
2019-04-25T16:35:17.362Z,15.20
2019-04-25T16:37:46.916Z,15.20
2019-04-25T16:40:31.911Z,15.20
2019-04-25T16:43:12.692Z,15.20
2019-04-25T16:45:42.458Z,15.00
2019-04-25T16:48:16.924Z,15.00
2019-04-25T16:50:48.255Z,15.00
2019-04-25T16:53:16.854Z,15.10
2019-04-25T16:56:02.137Z,14.90
2019-04-25T16:58:33.551Z,14.90
2019-04-25T17:01:12.532Z,14.60
2019-04-25T17:03:47.971Z,13.80
2019-04-25T17:06:20.655Z,13.00
2019-04-25T17:08:51.109Z,12.70
2019-04-25T17:11:23.016Z,12.50
2019-04-25T17:13:59.918Z,12.40
2019-04-25T17:16:45.405Z,12.20
2019-04-25T17:19:26.881Z,12.30
2019-04-25T17:21:55.560Z,12.30
2019-04-25T17:24:32.487Z,12.20
2019-04-25T17:27:01.165Z,12.20
2019-04-25T17:29:32.509Z,12.20
2019-04-25T17:32:08.060Z,12.10
2019-04-25T17:34:43.518Z,12.10
2019-04-25T17:37:24.893Z,12.40
2019-04-25T17:40:12.726Z,12.10
2019-04-25T17:42:44.091Z,12.00
2019-04-25T17:45:14.565Z,11.90
2019-04-25T17:47:54.080Z,12.00
2019-04-25T17:51:02.400Z,12.00
2019-04-25T17:53:34.407Z,11.90
2019-04-25T17:56:05.154Z,11.80
2019-04-25T17:58:36.808Z,11.90
2019-04-25T18:01:11.062Z,11.90
2019-04-25T18:03:55.473Z,11.80
2019-04-25T18:06:29.966Z,11.70
2019-04-25T18:09:05.895Z,11.70
2019-04-25T18:11:34.786Z,11.70
2019-04-25T18:14:15.590Z,11.70
2019-04-25T18:16:50.153Z,11.60
2019-04-25T18:19:38.790Z,11.60
2019-04-25T18:22:09.213Z,11.60
2019-04-25T18:24:45.430Z,11.60
2019-04-25T18:27:15.812Z,11.70
2019-04-25T18:30:01.140Z,11.70
2019-04-25T18:32:39.729Z,11.60
2019-04-25T18:35:11.694Z,11.50
2019-04-25T18:37:52.055Z,11.50
2019-04-25T18:40:22.322Z,11.50
2019-04-25T18:42:58.433Z,11.40
2019-04-25T18:45:28.733Z,11.40
2019-04-25T18:47:58.336Z,11.30
2019-04-25T18:50:36.240Z,11.30
2019-04-25T18:53:12.865Z,11.20
2019-04-25T18:56:01.119Z,11.20
2019-04-25T18:59:23.011Z,11.20
2019-04-25T19:02:04.683Z,11.20
2019-04-25T19:04:34.938Z,11.10
2019-04-25T19:07:21.895Z,11.10
2019-04-25T19:09:53.182Z,11.10
2019-04-25T19:12:21.783Z,11.00
2019-04-25T19:15:08.895Z,11.00
2019-04-25T19:17:37.624Z,11.00
2019-04-25T19:20:08.334Z,11.00
2019-04-25T19:22:37.981Z,11.00
2019-04-25T19:25:13.447Z,11.00
2019-04-25T19:27:50.987Z,11.00
2019-04-25T19:30:25.592Z,11.00
2019-04-25T19:33:08.160Z,11.00
2019-04-25T19:35:37.645Z,10.90
2019-04-25T19:38:14.796Z,10.80
2019-04-25T19:40:48.112Z,10.80
2019-04-25T19:43:26.853Z,10.80
2019-04-25T19:45:55.487Z,10.80
2019-04-25T19:48:25.499Z,10.90
2019-04-25T19:51:06.110Z,10.90
2019-04-25T19:53:40.706Z,10.90
2019-04-25T19:56:12.130Z,10.80
2019-04-25T19:58:46.799Z,10.80
2019-04-25T20:01:21.617Z,10.80
2019-04-25T20:03:58.753Z,10.80
2019-04-25T20:06:40.796Z,10.80
2019-04-25T20:09:17.204Z,10.80
2019-04-25T20:11:51.890Z,10.80
2019-04-25T20:14:27.193Z,10.80
2019-04-25T20:16:56.912Z,10.80
2019-04-25T20:19:31.427Z,10.80
2019-04-25T20:22:03.124Z,10.80
2019-04-25T20:24:31.839Z,10.80
2019-04-25T20:27:04.346Z,10.80
2019-04-25T20:29:33.048Z,10.70
2019-04-25T20:32:14.604Z,10.70
2019-04-25T20:34:49.139Z,10.70
2019-04-25T20:37:23.740Z,10.70
2019-04-25T20:40:02.445Z,10.70
2019-04-25T20:42:31.238Z,10.70
2019-04-25T20:45:03.228Z,10.80
2019-04-25T20:47:35.076Z,10.80
2019-04-25T20:50:14.907Z,10.90
2019-04-25T20:52:43.769Z,10.80
2019-04-25T20:55:12.965Z,10.80
2019-04-25T20:57:41.582Z,10.70
2019-04-25T21:00:10.463Z,10.80
2019-04-25T21:02:39.737Z,10.80
2019-04-25T21:05:08.597Z,10.80
2019-04-25T21:07:37.283Z,10.90
2019-04-25T21:10:07.351Z,10.70
2019-04-25T21:12:39.175Z,10.60
2019-04-25T21:15:09.843Z,10.50
2019-04-25T21:17:40.041Z,10.50
2019-04-25T21:20:10.408Z,10.50
2019-04-25T21:22:39.076Z,10.50
2019-04-25T21:25:08.341Z,10.50
2019-04-25T21:27:36.974Z,10.40
2019-04-25T21:30:07.643Z,10.50
2019-04-25T21:32:50.512Z,10.50
2019-04-25T21:35:19.627Z,10.50
2019-04-25T21:37:48.207Z,10.40
2019-04-25T21:40:25.444Z,10.40
2019-04-25T21:43:04.571Z,10.40
2019-04-25T21:45:33.735Z,10.40
2019-04-25T21:48:03.062Z,10.40
2019-04-25T21:50:31.931Z,10.40
2019-04-25T21:53:01.307Z,10.30
2019-04-25T21:55:36.369Z,10.30
2019-04-25T21:58:05.453Z,10.20
2019-04-25T22:00:44.543Z,10.20
2019-04-25T22:03:14.192Z,10.20
2019-04-25T22:05:43.413Z,10.20
2019-04-25T22:08:11.979Z,10.20
2019-04-25T22:10:40.702Z,10.20
2019-04-25T22:13:16.105Z,10.20
2019-04-25T22:15:39.516Z,10.30
2019-04-25T22:18:08.179Z,10.40
2019-04-25T22:20:36.759Z,10.40
2019-04-25T22:23:05.533Z,10.30
2019-04-25T22:25:34.946Z,10.10
2019-04-25T22:28:03.903Z,10.00
2019-04-25T22:30:32.984Z,9.80
2019-04-25T22:33:03.616Z,9.70
2019-04-25T22:35:40.372Z,9.60
2019-04-25T22:38:09.199Z,9.60
2019-04-25T22:40:37.766Z,9.40
2019-04-25T22:43:07.837Z,9.40
2019-04-25T22:45:36.678Z,9.30
2019-04-25T22:48:05.299Z,9.20
2019-04-25T22:50:35.048Z,9.30
2019-04-25T22:53:21.040Z,9.20
2019-04-25T22:55:39.794Z,9.20
2019-04-25T22:58:08.345Z,9.10
2019-04-25T23:00:40.270Z,9.10
2019-04-25T23:03:19.715Z,9.00
2019-04-25T23:05:49.999Z,9.10
2019-04-25T23:08:18.939Z,9.10
2019-04-25T23:10:47.580Z,9.10
2019-04-25T23:13:16.225Z,9.10
2019-04-25T23:15:44.904Z,9.20
2019-04-25T23:18:13.805Z,9.20
2019-04-25T23:20:43.468Z,9.30
2019-04-25T23:23:12.391Z,9.20
2019-04-25T23:25:59.139Z,9.30
2019-04-25T23:28:29.661Z,9.40
2019-04-25T23:31:10.171Z,9.50
2019-04-25T23:33:38.976Z,9.40
2019-04-25T23:36:09.011Z,9.50
2019-04-25T23:38:37.739Z,9.50
2019-04-25T23:41:07.221Z,9.50
2019-04-25T23:43:36.062Z,9.50
2019-04-25T23:46:05.687Z,9.60
2019-04-25T23:48:34.567Z,9.60
2019-04-25T23:51:03.200Z,9.60
2019-04-25T23:53:31.772Z,9.60
2019-04-25T23:56:00.499Z,9.70
2019-04-25T23:58:29.083Z,9.90
